createdAt,value
2017-08-26T00:01:08.907Z,6.50
2017-08-26T00:06:16.622Z,7.13
2017-08-26T00:11:22.339Z,6.70
2017-08-26T00:16:25.312Z,7.33
2017-08-26T00:21:32.782Z,7.27
2017-08-26T00:26:35.756Z,9.57
2017-08-26T00:31:41.160Z,8.50
2017-08-26T00:36:44.083Z,8.43
2017-08-26T00:41:48.011Z,8.67
2017-08-26T00:46:52.275Z,8.77
2017-08-26T00:51:56.234Z,7.97
2017-08-26T00:56:58.255Z,8.50
2017-08-26T01:02:04.224Z,7.00
2017-08-26T01:07:14.459Z,7.70
2017-08-26T01:12:16.966Z,8.17
2017-08-26T01:17:19.819Z,7.47
2017-08-26T01:22:22.278Z,7.20
2017-08-26T01:27:24.569Z,7.60
2017-08-26T01:32:26.617Z,8.93
2017-08-26T01:37:28.567Z,9.80
2017-08-26T01:42:30.520Z,10.70
2017-08-26T01:47:32.448Z,10.60
2017-08-26T01:52:34.399Z,11.30
2017-08-26T01:57:36.320Z,11.40
2017-08-26T02:02:38.611Z,12.80
2017-08-26T02:07:40.915Z,12.23
2017-08-26T02:12:44.159Z,12.70
2017-08-26T02:17:46.443Z,13.40
2017-08-26T02:22:48.401Z,12.33
2017-08-26T02:27:50.315Z,12.90
2017-08-26T02:32:52.245Z,12.80
2017-08-26T02:37:54.150Z,12.70
2017-08-26T02:42:56.081Z,12.73
2017-08-26T02:47:58.031Z,12.33
2017-08-26T02:52:59.985Z,12.97
2017-08-26T02:58:01.918Z,12.30
2017-08-26T03:03:03.883Z,11.97
2017-08-26T03:08:05.809Z,10.93
2017-08-26T03:13:07.728Z,10.40
2017-08-26T03:18:09.638Z,10.80
2017-08-26T03:23:11.583Z,10.80
2017-08-26T03:28:13.507Z,11.23
2017-08-26T03:33:15.440Z,10.60
2017-08-26T03:38:17.427Z,10.33
2017-08-26T03:43:19.350Z,10.40
2017-08-26T03:48:21.282Z,10.53
2017-08-26T03:53:23.233Z,10.37
2017-08-26T03:58:25.167Z,10.50
2017-08-26T04:03:27.146Z,10.70
2017-08-26T04:08:29.088Z,10.03
2017-08-26T04:13:31.015Z,10.13
2017-08-26T04:18:32.951Z,10.67
2017-08-26T04:23:35.796Z,10.20
2017-08-26T04:28:38.466Z,10.93
2017-08-26T04:33:40.426Z,11.60
2017-08-26T04:38:47.737Z,10.40
2017-08-26T04:43:51.036Z,10.87
2017-08-26T04:48:53.703Z,11.00
2017-08-26T04:53:56.502Z,10.57
2017-08-26T04:59:00.224Z,10.07
2017-08-26T05:04:02.155Z,10.50
2017-08-26T05:09:04.239Z,10.17
2017-08-26T05:14:06.179Z,9.70
2017-08-26T05:19:08.151Z,9.10
2017-08-26T05:24:10.203Z,9.17
2017-08-26T05:29:12.572Z,8.90
2017-08-26T05:34:14.927Z,8.83
2017-08-26T05:39:17.417Z,9.77
2017-08-26T05:44:19.758Z,9.13
2017-08-26T05:49:22.099Z,8.97
2017-08-26T05:54:24.389Z,9.73
2017-08-26T05:59:27.019Z,9.83
2017-08-26T06:04:29.536Z,8.70
2017-08-26T06:09:31.942Z,9.10
2017-08-26T06:14:34.304Z,10.40
2017-08-26T06:19:36.806Z,9.70
2017-08-26T06:24:38.980Z,9.10
2017-08-26T06:29:41.360Z,9.80
2017-08-26T06:34:47.402Z,9.37
2017-08-26T06:39:54.665Z,9.50
2017-08-26T06:44:56.980Z,9.30
2017-08-26T06:49:59.260Z,9.10
2017-08-26T06:55:01.174Z,8.80
2017-08-26T07:00:03.146Z,8.77
2017-08-26T07:05:05.050Z,8.53
2017-08-26T07:10:06.985Z,8.80
2017-08-26T07:15:09.055Z,12.00
2017-08-26T07:20:11.003Z,8.23
2017-08-26T07:25:12.912Z,8.20
2017-08-26T07:30:15.092Z,7.47
2017-08-26T07:35:17.204Z,8.60
2017-08-26T07:40:19.285Z,8.47
2017-08-26T07:45:23.229Z,7.80
2017-08-26T07:50:25.569Z,9.00
2017-08-26T07:55:27.914Z,8.33
2017-08-26T08:00:29.868Z,8.40
2017-08-26T08:05:31.978Z,8.40
2017-08-26T08:10:34.156Z,8.10
2017-08-26T08:15:36.098Z,9.00
2017-08-26T08:20:38.028Z,8.13
2017-08-26T08:25:41.439Z,8.40
2017-08-26T08:30:43.432Z,7.17
2017-08-26T08:35:45.385Z,8.47
2017-08-26T08:40:47.364Z,8.40
2017-08-26T08:45:49.840Z,8.03
2017-08-26T08:50:52.683Z,8.17
2017-08-26T08:55:55.570Z,9.00
2017-08-26T09:00:57.827Z,8.23
2017-08-26T09:06:04.072Z,9.23
2017-08-26T09:11:06.072Z,7.73
2017-08-26T09:16:08.130Z,9.00
2017-08-26T09:21:10.133Z,8.30
2017-08-26T09:26:12.215Z,7.83
2017-08-26T09:31:14.173Z,8.07
2017-08-26T09:36:16.091Z,7.53
2017-08-26T09:41:18.039Z,9.20
2017-08-26T09:46:19.976Z,8.50
2017-08-26T09:51:22.951Z,8.47
2017-08-26T09:56:24.898Z,8.50
2017-08-26T10:01:26.867Z,8.80
2017-08-26T10:06:28.870Z,8.00
2017-08-26T10:11:30.783Z,8.60
2017-08-26T10:16:33.516Z,9.03
2017-08-26T10:21:35.466Z,8.57
2017-08-26T10:26:37.440Z,16.37
2017-08-26T10:31:39.407Z,9.60
2017-08-26T10:36:41.421Z,9.50
2017-08-26T10:41:43.452Z,9.40
2017-08-26T10:46:45.485Z,10.40
2017-08-26T10:51:47.503Z,10.33
2017-08-26T10:56:49.487Z,8.20
2017-08-26T11:01:51.440Z,8.10
2017-08-26T11:06:53.364Z,8.10
2017-08-26T11:11:55.313Z,7.97
2017-08-26T11:16:57.256Z,7.50
2017-08-26T11:21:59.240Z,8.90
2017-08-26T11:27:01.257Z,8.43
2017-08-26T11:32:03.295Z,8.27
2017-08-26T11:37:05.579Z,9.43
2017-08-26T11:42:08.230Z,8.33
2017-08-26T11:47:10.549Z,9.23
2017-08-26T11:52:12.505Z,9.07
2017-08-26T11:57:14.508Z,8.97
2017-08-26T12:02:16.460Z,10.33
2017-08-26T12:07:18.399Z,11.03
2017-08-26T12:12:20.748Z,8.50
2017-08-26T12:17:22.753Z,9.00
2017-08-26T12:22:24.715Z,10.47
2017-08-26T12:27:26.686Z,10.30
2017-08-26T12:32:28.634Z,8.47
2017-08-26T12:37:30.593Z,9.40
2017-08-26T12:42:32.554Z,9.50
2017-08-26T12:47:34.648Z,7.77
2017-08-26T12:52:36.937Z,8.57
2017-08-26T12:57:39.516Z,8.33
2017-08-26T13:02:41.569Z,11.10
2017-08-26T13:07:43.580Z,10.37
2017-08-26T13:12:45.603Z,15.53
2017-08-26T13:17:47.599Z,10.50
2017-08-26T13:22:49.686Z,10.47
2017-08-26T13:27:51.688Z,9.60
2017-08-26T13:32:53.868Z,11.27
2017-08-26T13:37:55.839Z,10.57
2017-08-26T13:42:57.935Z,11.70
2017-08-26T13:48:00.011Z,13.07
2017-08-26T13:53:02.145Z,9.00
2017-08-26T13:58:04.180Z,10.73
2017-08-26T14:03:06.275Z,10.40
2017-08-26T14:08:08.447Z,9.40
2017-08-26T14:13:10.519Z,11.97
2017-08-26T14:18:13.329Z,11.67
2017-08-26T14:23:15.665Z,10.20
2017-08-26T14:28:17.818Z,11.00
2017-08-26T14:33:19.926Z,10.93
2017-08-26T14:38:22.110Z,10.33
2017-08-26T14:43:24.462Z,12.27
2017-08-26T14:48:27.174Z,12.30
2017-08-26T14:53:33.846Z,11.60
2017-08-26T14:58:47.284Z,10.33
2017-08-26T15:03:49.942Z,11.27
2017-08-26T15:08:52.251Z,9.40
2017-08-26T15:13:56.276Z,13.67
2017-08-26T15:19:11.068Z,17.40
2017-08-26T15:24:22.399Z,13.47
2017-08-26T15:29:30.186Z,12.07
2017-08-26T15:34:34.631Z,11.97
2017-08-26T15:39:46.676Z,20.50
2017-08-26T15:50:18.704Z,32.23
2017-08-26T16:01:03.417Z,11.70
2017-08-26T16:06:15.992Z,14.30
2017-08-26T16:11:27.894Z,14.67
2017-08-26T16:16:38.476Z,13.67
2017-08-26T16:21:41.758Z,14.47
2017-08-26T16:26:44.111Z,13.77
2017-08-26T16:31:46.457Z,13.50
2017-08-26T16:36:48.930Z,13.47
2017-08-26T16:41:51.297Z,13.70
2017-08-26T16:47:08.046Z,14.97
2017-08-26T16:52:20.097Z,15.50
2017-08-26T16:57:25.207Z,17.37
2017-08-26T17:02:28.270Z,16.90
2017-08-26T17:07:30.653Z,19.90
2017-08-26T17:12:32.689Z,20.90
2017-08-26T17:17:35.217Z,22.20
2017-08-26T17:22:37.636Z,19.27
2017-08-26T17:27:40.115Z,25.93
2017-08-26T17:32:42.486Z,23.93
2017-08-26T17:37:44.927Z,22.60
2017-08-26T17:42:47.321Z,21.73
2017-08-26T17:47:49.754Z,17.90
2017-08-26T17:52:53.164Z,15.53
2017-08-26T17:57:55.461Z,16.03
2017-08-26T18:02:57.677Z,15.70
2017-08-26T18:08:01.851Z,14.90
2017-08-26T18:13:05.711Z,15.60
2017-08-26T18:18:09.141Z,15.10
2017-08-26T18:23:12.463Z,15.90
2017-08-26T18:28:16.281Z,15.60
2017-08-26T18:33:18.599Z,16.03
2017-08-26T18:38:21.294Z,16.13
2017-08-26T18:43:26.600Z,15.60
2017-08-26T18:48:29.512Z,17.10
2017-08-26T18:53:33.346Z,18.00
2017-08-26T18:58:39.757Z,16.30
2017-08-26T19:03:46.754Z,16.43
2017-08-26T19:08:50.877Z,18.10
2017-08-26T19:13:57.149Z,17.40
2017-08-26T19:19:06.254Z,16.97
2017-08-26T19:24:13.123Z,18.27
2017-08-26T19:29:17.964Z,16.73
2017-08-26T19:34:23.161Z,18.03
2017-08-26T19:39:29.518Z,15.50
2017-08-26T19:44:35.836Z,16.40
2017-08-26T19:49:42.162Z,18.27
2017-08-26T19:54:47.225Z,17.70
2017-08-26T19:59:54.130Z,17.80
2017-08-26T20:04:57.814Z,17.67
2017-08-26T20:10:03.054Z,17.60
2017-08-26T20:15:06.690Z,16.43
2017-08-26T20:20:10.676Z,18.37
2017-08-26T20:25:17.076Z,16.47
2017-08-26T20:30:23.236Z,17.90
2017-08-26T20:35:29.424Z,18.50
2017-08-26T20:40:36.856Z,17.67
2017-08-26T20:45:43.697Z,18.53
2017-08-26T20:50:46.346Z,17.57
2017-08-26T20:55:49.679Z,17.70
2017-08-26T21:00:51.672Z,17.40
2017-08-26T21:05:53.711Z,18.50
2017-08-26T21:10:55.719Z,18.33
2017-08-26T21:15:57.661Z,18.00
2017-08-26T21:20:59.730Z,18.93
2017-08-26T21:26:01.715Z,17.97
2017-08-26T21:31:03.796Z,17.93
2017-08-26T21:36:05.768Z,19.07
2017-08-26T21:41:07.755Z,19.00
2017-08-26T21:46:09.758Z,19.60
2017-08-26T21:51:11.914Z,20.20
2017-08-26T21:56:14.054Z,19.57
2017-08-26T22:01:16.080Z,19.10
2017-08-26T22:06:19.095Z,20.40
2017-08-26T22:11:21.152Z,19.90
2017-08-26T22:16:23.159Z,20.73
2017-08-26T22:21:25.346Z,20.67
2017-08-26T22:26:27.359Z,20.23
2017-08-26T22:31:29.452Z,20.90
2017-08-26T22:36:31.684Z,21.33
2017-08-26T22:41:33.765Z,21.03
2017-08-26T22:46:35.736Z,21.87
2017-08-26T22:51:37.735Z,23.27
2017-08-26T22:56:40.093Z,21.70
2017-08-26T23:01:42.450Z,22.90
2017-08-26T23:06:45.294Z,23.20
2017-08-26T23:11:48.157Z,23.10
2017-08-26T23:16:50.843Z,21.47
2017-08-26T23:21:53.532Z,23.00
2017-08-26T23:26:56.258Z,24.00
2017-08-26T23:31:58.371Z,23.43
2017-08-26T23:37:01.039Z,24.20
2017-08-26T23:42:03.034Z,23.10
2017-08-26T23:47:05.774Z,23.90
2017-08-26T23:52:08.287Z,25.30
2017-08-26T23:57:11.033Z,25.30
